Time;durP1;ratioP1;P1;durP2;ratioP2;P2;SDS_P1;SDS_P2;PMS_P1;PMS_P2;Temp;Humidity;BMP_temperature;BMP_pressure;BME280_temperature;BME280_humidity;BME280_pressure;Samples;Min_cycle;Max_cycle;Signal;HPM_P1;HPM_P2
2023/11/03 16:23:21;;;;;;;0.50;0.40;;;10.00;99.90;;;;;;4931121;23;20244;-71
2023/11/03 16:25:49;;;;;;;1.27;0.70;;;9.90;99.90;;;;;;4897738;29;20225;-78
2023/11/03 16:28:17;;;;;;;3.13;0.60;;;9.90;99.90;;;;;;4899318;29;20207;-73
2023/11/03 16:30:44;;;;;;;0.63;0.20;;;9.80;99.90;;;;;;4882392;29;20326;-73
2023/11/03 16:33:11;;;;;;;1.33;0.30;;;9.70;99.90;;;;;;4878856;29;20214;-76
2023/11/03 16:35:38;;;;;;;0.97;0.30;;;9.70;99.90;;;;;;4883408;29;20211;-77
2023/11/03 16:38:08;;;;;;;0.50;0.17;;;9.70;99.90;;;;;;4890562;29;20209;-72
2023/11/03 16:40:38;;;;;;;0.70;0.30;;;9.70;99.90;;;;;;4897396;29;20238;-74
2023/11/03 16:43:07;;;;;;;0.40;0.30;;;9.60;99.90;;;;;;4896986;29;20266;-74
2023/11/03 16:45:34;;;;;;;3.80;0.30;;;9.60;99.90;;;;;;4896381;29;20711;-75
2023/11/03 16:48:01;;;;;;;0.40;0.20;;;9.60;99.90;;;;;;4897454;29;20214;-72
2023/11/03 16:50:28;;;;;;;2.33;0.43;;;9.60;99.90;;;;;;4896994;29;20230;-73
2023/11/03 16:52:56;;;;;;;0.90;0.33;;;9.70;99.90;;;;;;4897350;29;20214;-73
2023/11/03 16:55:24;;;;;;;0.70;0.30;;;9.70;99.90;;;;;;4897151;29;20741;-80
2023/11/03 16:57:52;;;;;;;2.67;0.30;;;9.80;99.90;;;;;;4897614;29;20669;-72
2023/11/03 17:00:19;;;;;;;3.57;0.30;;;9.80;99.90;;;;;;4897573;29;20270;-72
2023/11/03 17:02:47;;;;;;;0.50;0.20;;;9.70;99.90;;;;;;4897590;29;20202;-73
2023/11/03 17:05:15;;;;;;;0.60;0.20;;;9.70;99.90;;;;;;4891122;29;20238;-70
2023/11/03 17:07:42;;;;;;;2.63;0.40;;;9.70;99.90;;;;;;4889781;29;20266;-71
2023/11/03 17:10:11;;;;;;;1.57;1.37;;;9.60;99.90;;;;;;4887797;29;20239;-79
2023/11/03 17:12:39;;;;;;;0.47;0.13;;;9.60;99.90;;;;;;4894077;29;20214;-71
2023/11/03 17:15:10;;;;;;;2.30;0.40;;;9.50;99.90;;;;;;4897657;29;20214;-70
2023/11/03 17:17:37;;;;;;;0.37;0.30;;;9.50;99.90;;;;;;4897522;29;20206;-71
2023/11/03 17:20:11;;;;;;;0.90;0.50;;;9.50;99.90;;;;;;4896940;29;20230;-78
2023/11/03 17:22:40;;;;;;;1.90;0.47;;;9.50;99.90;;;;;;4896738;29;20269;-71
2023/11/03 17:25:09;;;;;;;1.33;0.40;;;9.50;99.90;;;;;;4897103;29;20242;-70
2023/11/03 17:27:36;;;;;;;3.13;0.40;;;9.50;99.90;;;;;;4897249;29;20242;-70
2023/11/03 17:30:05;;;;;;;0.57;0.30;;;9.50;99.90;;;;;;4897264;29;20252;-70
2023/11/03 17:32:33;;;;;;;2.30;0.63;;;9.40;99.90;;;;;;4897110;29;20615;-73
2023/11/03 17:35:00;;;;;;;4.97;0.60;;;9.40;99.90;;;;;;4896900;29;20219;-71
2023/11/03 17:37:27;;;;;;;1.73;0.30;;;9.40;99.90;;;;;;4896878;29;20242;-71
2023/11/03 17:39:54;;;;;;;1.03;0.57;;;9.40;99.90;;;;;;4890620;29;20265;-73
2023/11/03 17:42:21;;;;;;;1.13;0.40;;;9.40;99.90;;;;;;4892662;29;20780;-73
2023/11/03 17:44:48;;;;;;;0.57;0.40;;;9.40;99.90;;;;;;4900172;29;20241;-72
2023/11/03 17:47:15;;;;;;;0.47;0.30;;;9.40;99.90;;;;;;4900513;29;20222;-74
2023/11/03 17:49:46;;;;;;;0.60;0.40;;;9.30;99.90;;;;;;4896727;29;20309;-73
2023/11/03 17:52:13;;;;;;;0.93;0.30;;;9.20;99.90;;;;;;4890140;29;20273;-73
2023/11/03 17:54:39;;;;;;;1.67;0.47;;;9.20;99.90;;;;;;4899706;29;20696;-72
2023/11/03 17:57:07;;;;;;;2.03;0.40;;;9.20;99.90;;;;;;4900521;29;20211;-73
2023/11/03 17:59:34;;;;;;;0.50;0.30;;;9.30;99.90;;;;;;4900138;29;20269;-73
2023/11/03 18:02:01;;;;;;;0.83;0.30;;;9.20;99.90;;;;;;4900211;29;20263;-74
2023/11/03 18:04:28;;;;;;;0.73;0.33;;;9.20;99.90;;;;;;4900119;29;20293;-78
2023/11/03 18:06:56;;;;;;;1.47;0.50;;;9.10;99.90;;;;;;4900525;29;20202;-74
2023/11/03 18:09:23;;;;;;;0.63;0.40;;;9.10;99.90;;;;;;4900056;29;20777;-75
2023/11/03 18:11:50;;;;;;;0.70;0.30;;;9.00;99.90;;;;;;4900506;29;20725;-72
2023/11/03 18:14:17;;;;;;;1.10;0.50;;;9.00;99.90;;;;;;4899959;29;20218;-75
2023/11/03 18:16:45;;;;;;;0.30;0.20;;;9.00;99.90;;;;;;4900096;29;20296;-70
2023/11/03 18:19:12;;;;;;;0.50;0.40;;;9.00;99.90;;;;;;4900112;29;20230;-72
2023/11/03 18:21:40;;;;;;;0.77;0.50;;;9.00;99.90;;;;;;4900143;29;20242;-77
2023/11/03 18:24:09;;;;;;;2.33;0.30;;;9.00;99.90;;;;;;4899598;29;20262;-71
2023/11/03 18:26:36;;;;;;;1.60;0.40;;;8.90;99.90;;;;;;4900084;29;20211;-74
2023/11/03 18:29:05;;;;;;;0.83;0.40;;;8.90;99.90;;;;;;4900025;29;20294;-74
2023/11/03 18:31:32;;;;;;;1.03;0.40;;;8.90;99.90;;;;;;4900154;29;20218;-72
2023/11/03 18:33:59;;;;;;;0.93;0.30;;;8.90;99.90;;;;;;4899762;29;20221;-72
2023/11/03 18:36:26;;;;;;;0.60;0.40;;;8.90;99.90;;;;;;4899794;29;20693;-73
2023/11/03 18:38:53;;;;;;;0.47;0.30;;;8.90;99.90;;;;;;4899452;29;20238;-74
2023/11/03 18:41:21;;;;;;;0.67;0.40;;;8.90;99.90;;;;;;4899622;29;20233;-73
2023/11/03 18:43:49;;;;;;;0.80;0.30;;;8.90;99.90;;;;;;4899059;29;20206;-73
2023/11/03 18:46:16;;;;;;;0.63;0.30;;;9.00;99.90;;;;;;4900167;29;20248;-74
2023/11/03 18:48:43;;;;;;;1.17;0.30;;;9.10;99.90;;;;;;4899679;29;20209;-72
2023/11/03 18:51:11;;;;;;;1.43;0.40;;;9.10;99.90;;;;;;4899302;29;20571;-72
2023/11/03 18:53:38;;;;;;;3.43;0.40;;;9.20;99.90;;;;;;4899126;29;20238;-73
2023/11/03 18:56:09;;;;;;;0.60;0.40;;;9.30;99.90;;;;;;4899314;29;20210;-72
2023/11/03 18:58:38;;;;;;;1.43;0.20;;;9.30;99.90;;;;;;4887377;29;20574;-73
2023/11/03 19:01:05;;;;;;;1.00;0.30;;;9.20;99.90;;;;;;4899188;29;20237;-72
2023/11/03 19:03:33;;;;;;;2.17;0.20;;;9.20;99.90;;;;;;4899429;29;20211;-72
2023/11/03 19:06:00;;;;;;;1.83;0.30;;;9.20;99.90;;;;;;4898893;29;20738;-72
2023/11/03 19:08:27;;;;;;;0.37;0.30;;;9.10;99.90;;;;;;4899260;29;20264;-72
2023/11/03 19:10:55;;;;;;;0.40;0.30;;;9.00;99.90;;;;;;4898874;29;20276;-72
2023/11/03 19:13:22;;;;;;;0.23;0.10;;;8.90;99.90;;;;;;4899308;29;20669;-72
2023/11/03 19:15:51;;;;;;;0.63;0.33;;;8.90;99.90;;;;;;4899183;29;20214;-72
2023/11/03 19:18:18;;;;;;;0.50;0.27;;;8.90;99.90;;;;;;4899478;29;20318;-72
2023/11/03 19:20:45;;;;;;;1.60;0.40;;;8.80;99.90;;;;;;4898608;29;20226;-73
2023/11/03 19:23:12;;;;;;;0.30;0.30;;;8.80;99.90;;;;;;4898975;29;20635;-73
2023/11/03 19:25:41;;;;;;;0.23;0.20;;;8.70;99.90;;;;;;4898867;29;20280;-76
2023/11/03 19:28:12;;;;;;;0.63;0.33;;;8.80;99.90;;;;;;4899437;29;20566;-73
2023/11/03 19:30:39;;;;;;;0.60;0.20;;;8.80;99.90;;;;;;4898772;29;20226;-73
2023/11/03 19:33:09;;;;;;;0.50;0.30;;;8.80;99.90;;;;;;4898970;29;20662;-75
2023/11/03 19:35:43;;;;;;;0.57;0.40;;;8.70;99.90;;;;;;4898411;29;20650;-73
2023/11/03 19:38:10;;;;;;;0.30;0.30;;;8.70;99.90;;;;;;4898653;29;20574;-73
2023/11/03 19:40:39;;;;;;;1.60;0.37;;;8.60;99.90;;;;;;4898225;29;20317;-72
2023/11/03 19:43:06;;;;;;;1.27;0.30;;;8.60;99.90;;;;;;4898304;29;20297;-73
2023/11/03 19:45:33;;;;;;;1.13;0.57;;;8.60;99.90;;;;;;4898297;29;20318;-72
2023/11/03 19:48:03;;;;;;;1.17;0.40;;;8.60;99.90;;;;;;4898299;29;20211;-75
2023/11/03 19:50:32;;;;;;;0.80;0.30;;;8.60;99.90;;;;;;4886438;29;20270;-79
2023/11/03 19:52:59;;;;;;;0.40;0.30;;;8.60;99.90;;;;;;4897954;29;20217;-72
2023/11/03 19:55:26;;;;;;;1.03;0.37;;;8.60;99.90;;;;;;4898155;29;20301;-74
2023/11/03 19:57:53;;;;;;;0.47;0.23;;;8.60;99.90;;;;;;4898180;29;20210;-72
2023/11/03 20:00:20;;;;;;;0.33;0.17;;;8.60;99.90;;;;;;4898369;29;20238;-72
2023/11/03 20:02:48;;;;;;;0.67;0.33;;;8.60;99.90;;;;;;4898134;29;20225;-72
2023/11/03 20:05:15;;;;;;;1.10;0.37;;;8.60;99.90;;;;;;4897638;29;20248;-72
2023/11/03 20:07:43;;;;;;;0.40;0.30;;;8.60;99.90;;;;;;4898373;29;20262;-78
2023/11/03 20:10:10;;;;;;;0.60;0.40;;;8.50;99.90;;;;;;4898216;29;20234;-71
2023/11/03 20:12:37;;;;;;;0.77;0.50;;;8.50;99.90;;;;;;4897912;29;20768;-72
2023/11/03 20:15:05;;;;;;;0.67;0.30;;;8.50;99.90;;;;;;4898199;29;20203;-73
2023/11/03 20:17:33;;;;;;;0.93;0.40;;;8.50;99.90;;;;;;4897689;29;20765;-72
2023/11/03 20:20:00;;;;;;;0.53;0.30;;;8.50;99.90;;;;;;4898055;29;20222;-74
2023/11/03 20:22:28;;;;;;;1.67;0.40;;;8.50;99.90;;;;;;4897336;29;20297;-72
2023/11/03 20:24:56;;;;;;;0.53;0.30;;;8.60;99.90;;;;;;4897697;29;20305;-72
2023/11/03 20:27:23;;;;;;;0.70;0.40;;;8.50;99.90;;;;;;4897769;29;20207;-72
2023/11/03 20:29:50;;;;;;;1.77;0.30;;;8.50;99.90;;;;;;4897775;29;20234;-72
2023/11/03 20:32:17;;;;;;;0.80;0.40;;;8.50;99.90;;;;;;4897788;29;20206;-77
2023/11/03 20:34:44;;;;;;;0.53;0.40;;;8.50;99.90;;;;;;4897705;29;20210;-73
2023/11/03 20:37:11;;;;;;;1.57;0.40;;;8.50;99.90;;;;;;4899618;29;20210;-72
2023/11/03 20:39:39;;;;;;;0.40;0.30;;;8.50;99.90;;;;;;4905862;29;20268;-72
2023/11/03 20:42:09;;;;;;;0.90;0.47;;;8.50;99.90;;;;;;4897511;29;20210;-72
2023/11/03 20:44:38;;;;;;;1.27;0.40;;;8.50;99.90;;;;;;4897203;29;20210;-74
2023/11/03 20:47:06;;;;;;;0.73;0.50;;;8.50;99.90;;;;;;4897434;29;20281;-72
2023/11/03 20:49:33;;;;;;;4.57;0.70;;;8.50;99.90;;;;;;4897515;29;20630;-72
2023/11/03 20:52:00;;;;;;;0.70;0.40;;;8.40;99.90;;;;;;4897605;29;20570;-72
2023/11/03 20:54:28;;;;;;;0.53;0.33;;;8.40;99.90;;;;;;4897606;29;20222;-72
2023/11/03 20:56:55;;;;;;;0.90;0.30;;;8.40;99.90;;;;;;4897307;29;20210;-72
2023/11/03 20:59:23;;;;;;;0.40;0.40;;;8.50;99.90;;;;;;4895521;29;20260;-72
2023/11/03 21:01:50;;;;;;;1.90;0.40;;;8.50;99.90;;;;;;4879571;29;20544;-72
2023/11/03 21:04:19;;;;;;;0.57;0.20;;;8.40;99.90;;;;;;4891715;29;20700;-72
2023/11/03 21:06:46;;;;;;;0.40;0.30;;;8.30;99.90;;;;;;4897579;29;20621;-73
2023/11/03 21:09:14;;;;;;;1.23;0.30;;;8.40;99.90;;;;;;4896956;29;20274;-72
2023/11/03 21:11:41;;;;;;;0.70;0.40;;;8.40;99.90;;;;;;4897362;29;20728;-72
2023/11/03 21:14:08;;;;;;;0.83;0.30;;;8.40;99.90;;;;;;4897394;29;20238;-74
2023/11/03 21:16:37;;;;;;;0.83;0.30;;;8.40;99.90;;;;;;4898896;29;20218;-72
2023/11/03 21:19:04;;;;;;;0.70;0.20;;;8.30;99.90;;;;;;4900802;29;20258;-73
2023/11/03 21:21:31;;;;;;;0.30;0.20;;;8.30;99.90;;;;;;4901247;29;20245;-72
2023/11/03 21:23:58;;;;;;;1.03;0.40;;;8.30;99.90;;;;;;4900808;29;20266;-72
2023/11/03 21:26:25;;;;;;;0.40;0.20;;;8.30;99.90;;;;;;4901122;29;20317;-72
2023/11/03 21:28:52;;;;;;;0.40;0.30;;;8.20;99.90;;;;;;4900909;29;20635;-72
2023/11/03 21:31:19;;;;;;;2.20;1.03;;;8.20;99.90;;;;;;4900740;29;20210;-72
2023/11/03 21:33:48;;;;;;;0.57;0.30;;;8.20;99.90;;;;;;4896808;29;20222;-72
2023/11/03 21:36:24;;;;;;;0.37;0.30;;;8.30;99.90;;;;;;4883086;29;20215;-72
2023/11/03 21:38:51;;;;;;;0.40;0.20;;;8.30;99.90;;;;;;4898868;29;20205;-72
2023/11/03 21:41:18;;;;;;;0.40;0.30;;;8.30;99.90;;;;;;4900874;29;20274;-72
2023/11/03 21:43:44;;;;;;;0.40;0.30;;;8.20;99.90;;;;;;4900531;29;20266;-73
2023/11/03 21:46:20;;;;;;;0.83;0.40;;;8.20;99.90;;;;;;4900357;29;20687;-72
2023/11/03 21:48:48;;;;;;;0.50;0.30;;;8.20;99.90;;;;;;4900213;29;20241;-72
2023/11/03 21:51:15;;;;;;;2.40;0.30;;;8.30;99.90;;;;;;4900612;29;20220;-72
2023/11/03 21:53:43;;;;;;;0.50;0.20;;;8.30;99.90;;;;;;4900414;29;20210;-72
2023/11/03 21:56:10;;;;;;;0.40;0.27;;;8.30;99.90;;;;;;4900733;29;20206;-72
2023/11/03 21:58:39;;;;;;;0.80;0.20;;;8.30;99.90;;;;;;4888626;29;20603;-72
2023/11/03 22:01:06;;;;;;;0.70;0.40;;;8.20;99.90;;;;;;4886686;29;20287;-71
2023/11/03 22:03:33;;;;;;;1.70;0.30;;;8.20;99.90;;;;;;4888868;29;20230;-73
2023/11/03 22:06:01;;;;;;;0.30;0.20;;;8.20;99.90;;;;;;4900213;29;20265;-73
